Nearby METAR Reports

 

KOXC - Oxford/Waterbury, Connecticut, USA
Distance from station: SE 8mi, 12km
Updated: Fri, 16-Apr-2021 1:51pm EDT
Light rain, Mist, Overcast
Light rain, Mist, Overcast
 Wind from NNW
Wind: NNW 10 mph , 17 km/h
Temperature: 39°F , 4°C
Wind Chill: 32°F , 0°C
Dew Point: 39°F , 4°C
Humidity: 100%
Barometer: 29.58 inHg , 1001.7 hPa
Summary: Light rain, Mist
Clouds: Overcast
Visibility: 6 miles , 10 km
Cloud details: Partly cloudy 1000 ft
Mostly cloudy 2400 ft
Overcast 4100 ft
2021/04/16 17:51 KOXC 161751Z 34009KT 6SM -RA BR SCT010 BKN024 OVC041 04/04 A2958 RMK AO2 SLP034 P0002 60002 T00440044 10056 20022 55002
KDXR - Danbury, Connecticut, USA
Distance from station: SW 19mi, 30km
Updated: Fri, 16-Apr-2021 1:53pm EDT
Overcast
Overcast
 Wind from WNW
Wind: WNW 12 mph , 19 km/h
Temperature: 46°F , 8°C
Wind Chill: 40°F , 4°C
Dew Point: 36°F , 2°C
Humidity: 66%
Barometer: 29.60 inHg , 1002.4 hPa
Clouds: Overcast
Visibility: 10 miles , 16 km
Cloud details: Mostly cloudy 2000 ft
Overcast 5000 ft
2021/04/16 17:53 KDXR 161753Z 30010KT 270V360 10SM BKN020 OVC050 08/02 A2960 RMK AO2 WSHFT 1716 RAB36E46 SLP023 P0000 60000 T00830017 10089 20050 55008
 
KMMK - Meriden, Connecticut, USA
Distance from station: E 20mi, 33km
Updated: Fri, 16-Apr-2021 1:53pm EDT
Light rain, Overcast
Light rain, Overcast
 Wind from NW
Wind: NW 13 mph , 20 km/h
Temperature: 43°F , 6°C
Wind Chill: 36°F , 2°C
Dew Point: 36°F , 2°C
Humidity: 76%
Barometer: 29.59 inHg , 1002 hPa
Summary: Light rain
Clouds: Overcast
Visibility: 10 miles , 16 km
Cloud details: Few Clouds 1400 ft
Mostly cloudy 3300 ft
Overcast 4300 ft
2021/04/16 17:53 KMMK 161753Z AUTO 32011KT 10SM -RA FEW014 BKN033 OVC043 06/02 A2959 RMK AO2 SLP019 P0001 60002 T00560022 10067 20039 55002
KBDR - Bridgeport, Connecticut, USA
Distance from station: S 27mi, 44km
Updated: Fri, 16-Apr-2021 1:52pm EDT
Overcast
Overcast
 Wind from NNW
Wind: NNW 13 mph , 20 km/h
Temperature: 48°F , 9°C
Wind Chill: 43°F , 6°C
Dew Point: 36°F , 2°C
Humidity: 62%
Barometer: 29.58 inHg , 1001.7 hPa
Clouds: Overcast
Visibility: 10 miles , 16 km
Cloud details: Overcast 5000 ft
2021/04/16 17:52 KBDR 161752Z 33011KT 10SM OVC050 09/02 A2958 RMK AO2 SLP015 T00890017 10094 20050 55011
 
KHVN - New Haven/Tweed, Connecticut, USA
Distance from station: SE 27mi, 44km
Updated: Fri, 16-Apr-2021 1:53pm EDT
Light rain, Overcast
Light rain, Overcast
 Wind from N
Wind: N 12 mph , 19 km/h, Gust: 21 mph , 33 km/h
Temperature: 43°F , 6°C
Wind Chill: 37°F , 3°C
Dew Point: 37°F , 3°C
Humidity: 81%
Barometer: 29.58 inHg , 1001.7 hPa
Summary: Light rain
Clouds: Overcast
Visibility: 3 miles , 5 km
Cloud details: Overcast 2100 ft
2021/04/16 17:53 KHVN 161753Z 36010G18KT 3SM -RA OVC021 06/03 A2958 RMK AO2 SLP018 P0003 60003 T00610033 10083 20056 55001
KHFD - Hartford/Brainar, Connecticut, USA
Distance from station: ENE 32mi, 52km
Updated: Fri, 16-Apr-2021 1:53pm EDT
Light rain, Overcast
Light rain, Overcast
 Wind from NNW
Wind: NNW 16 mph , 26 km/h, Gust: 24 mph , 39 km/h
Temperature: 41°F , 5°C
Wind Chill: 33°F , 1°C
Dew Point: 36°F , 2°C
Humidity: 81%
Barometer: 29.58 inHg , 1001.7 hPa
Summary: Light rain
Clouds: Overcast
Visibility: 9 miles , 14 km
Cloud details: Mostly cloudy 1300 ft
Overcast 2100 ft
2021/04/16 17:53 KHFD 161753Z 34014G21KT 9SM -RA BKN013 OVC021 05/02 A2958 RMK AO2 SLP018 P0004 60024 T00500017 10050 20033 56004
 
KPOU - Poughkeepsie, New York, USA
Distance from station: W 35mi, 56km
Updated: Fri, 16-Apr-2021 1:53pm EDT
Mostly cloudy
Mostly cloudy
 Wind from NNW
Wind: NNW 13 mph , 20 km/h
Temperature: 46°F , 8°C
Wind Chill: 40°F , 4°C
Dew Point: 36°F , 2°C
Humidity: 66%
Barometer: 29.59 inHg , 1002 hPa
Clouds: Mostly cloudy
Visibility: 10 miles , 16 km
Cloud details: Few Clouds 2700 ft
Mostly cloudy 3300 ft
Mostly cloudy 6000 ft
2021/04/16 17:53 KPOU 161753Z 34011KT 10SM FEW027 BKN033 BKN060 08/02 A2959 RMK AO2 RAB1656E10 SLP019 P0001 60001 T00830022 10094 20039 56010
KBDL - Windsor Locks, Connecticut, USA
Distance from station: NE 38mi, 62km
Updated: Fri, 16-Apr-2021 1:51pm EDT
Light rain, Overcast
Light rain, Overcast
 Wind from NNW
Wind: NNW 14 mph , 22 km/h
Temperature: 39°F , 4°C
Wind Chill: 31°F , -1°C
Dew Point: 36°F , 2°C
Humidity: 87%
Barometer: 29.58 inHg , 1001.7 hPa
Summary: Light rain
Clouds: Overcast
Visibility: 6 miles , 10 km
Cloud details: Mostly cloudy 1200 ft
Overcast 2000 ft
2021/04/16 17:51 KBDL 161751Z 34012KT 6SM -RA BKN012 OVC020 04/02 A2958 RMK AO2 SLP018 P0006 60027 T00440017 10044 20022 56004
 
KSNC - Chester, Connecticut, USA
Distance from station: ESE 39mi, 63km
Updated: Fri, 16-Apr-2021 1:35pm EDT
Light rain, Overcast
Light rain, Overcast
 Wind from NNW
Wind: NNW 13 mph , 20 km/h, Gust: 21 mph , 33 km/h
Temperature: 41°F , 5°C
Wind Chill: 34°F , 1°C
Dew Point: 37°F , 3°C
Humidity: 87%
Barometer: 29.56 inHg , 1001 hPa
Summary: Light rain
Clouds: Overcast
Visibility: 4 miles , 6 km
Cloud details: Mostly cloudy 1000 ft
Mostly cloudy 1500 ft
Overcast 5000 ft
2021/04/16 17:35 KSNC 161735Z AUTO 34011G18KT 4SM -RA BKN010 BKN015 OVC050 05/03 A2956 RMK AO2
KHPN - White Plains, New York, USA
Distance from station: SW 42mi, 67km
Updated: Fri, 16-Apr-2021 1:56pm EDT
Mostly cloudy
Mostly cloudy
 Wind from WNW
Wind: WNW 14 mph , 22 km/h
Temperature: 48°F , 9°C
Wind Chill: 42°F , 6°C
Dew Point: 30°F , -1°C
Humidity: 50%
Barometer: 29.57 inHg , 1001.4 hPa
Clouds: Mostly cloudy
Visibility: 10 miles , 16 km
Cloud details: Partly cloudy 4800 ft
Mostly cloudy 7000 ft
2021/04/16 17:56 KHPN 161756Z 29012KT 10SM SCT048 BKN070 09/M01 A2957 RMK AO2 SLP018 T00891006 10100 20039 56012
 
KSWF - Newburgh/Stewart, New York, USA
Distance from station: W 45mi, 72km
Updated: Fri, 16-Apr-2021 1:45pm EDT
Overcast
Overcast
 Wind from WNW
Wind: WNW 12 mph , 19 km/h, Gust: 21 mph , 33 km/h
Temperature: 46°F , 8°C
Wind Chill: 40°F , 4°C
Dew Point: 34°F , 1°C
Humidity: 62%
Barometer: 29.59 inHg , 1002 hPa
Clouds: Overcast
Visibility: 10 miles , 16 km
Cloud details: Mostly cloudy 4000 ft
Overcast 5000 ft
2021/04/16 17:45 KSWF 161745Z 30010G18KT 10SM BKN040 OVC050 08/01 A2959
KBAF - Westfield, Massachusetts, USA
Distance from station: NNE 50mi, 80km
Updated: Fri, 16-Apr-2021 12:53pm EDT
Rain, Mist, Overcast
Rain, Mist, Overcast
 Wind from N
Wind: N 15 mph , 24 km/h
Temperature: 37°F , 3°C
Wind Chill: 28°F , -2°C
Dew Point: 36°F , 2°C
Humidity: 93%
Barometer: 29.59 inHg , 1002 hPa
Summary: Rain, Mist
Clouds: Overcast
Visibility: 6 miles , 10 km
Cloud details: Mostly cloudy 1000 ft
Overcast 1700 ft
2021/04/16 16:53 KBAF 161653Z 35013KT 6SM RA BR BKN010 OVC017 03/02 A2959 RMK AO2 SLP023 P0006 T00330022